sensor_id;sensor_type;location;lat;lon;timestamp;pressure;altitude;pressure_sealevel;temperature;humidity
21902;BME280;11115;46.038;14.612;2024-03-06T00:01:20;98211.47;;;9.41;100.00
21902;BME280;11115;46.038;14.612;2024-03-06T00:03:54;98230.59;;;9.37;100.00
21902;BME280;11115;46.038;14.612;2024-03-06T00:06:29;98225.09;;;9.37;100.00
21902;BME280;11115;46.038;14.612;2024-03-06T00:09:02;98228.88;;;9.41;100.00
21902;BME280;11115;46.038;14.612;2024-03-06T00:11:35;98239.00;;;9.46;100.00
21902;BME280;11115;46.038;14.612;2024-03-06T00:14:06;98234.81;;;9.49;100.00
21902;BME280;11115;46.038;14.612;2024-03-06T00:16:40;98247.69;;;9.53;100.00
21902;BME280;11115;46.038;14.612;2024-03-06T00:19:21;98243.28;;;9.52;100.00
21902;BME280;11115;46.038;14.612;2024-03-06T00:21:52;98243.19;;;9.57;100.00
21902;BME280;11115;46.038;14.612;2024-03-06T00:24:33;98252.91;;;9.41;100.00
21902;BME280;11115;46.038;14.612;2024-03-06T00:27:08;98258.09;;;9.42;100.00
21902;BME280;11115;46.038;14.612;2024-03-06T00:29:45;98253.63;;;9.47;100.00
21902;BME280;11115;46.038;14.612;2024-03-06T00:32:17;98250.06;;;9.46;100.00
21902;BME280;11115;46.038;14.612;2024-03-06T00:35:08;98262.00;;;9.41;100.00
21902;BME280;11115;46.038;14.612;2024-03-06T00:37:39;98254.84;;;9.40;100.00
21902;BME280;11115;46.038;14.612;2024-03-06T00:40:13;98257.09;;;9.38;100.00
21902;BME280;11115;46.038;14.612;2024-03-06T00:42:46;98260.28;;;9.46;100.00
21902;BME280;11115;46.038;14.612;2024-03-06T00:45:21;98254.75;;;9.46;100.00
21902;BME280;11115;46.038;14.612;2024-03-06T00:47:54;98259.34;;;9.50;100.00
21902;BME280;11115;46.038;14.612;2024-03-06T00:50:30;98258.34;;;9.46;100.00
21902;BME280;11115;46.038;14.612;2024-03-06T00:53:04;98258.34;;;9.46;100.00
21902;BME280;11115;46.038;14.612;2024-03-06T00:55:36;98257.91;;;9.39;100.00
21902;BME280;11115;46.038;14.612;2024-03-06T00:58:08;98259.22;;;9.41;100.00
21902;BME280;11115;46.038;14.612;2024-03-06T01:00:53;98260.16;;;9.37;100.00
21902;BME280;11115;46.038;14.612;2024-03-06T01:03:25;98258.00;;;9.34;100.00
21902;BME280;11115;46.038;14.612;2024-03-06T01:06:03;98255.97;;;9.39;100.00
21902;BME280;11115;46.038;14.612;2024-03-06T01:08:44;98266.91;;;9.31;100.00
21902;BME280;11115;46.038;14.612;2024-03-06T01:11:18;98264.16;;;9.31;100.00
21902;BME280;11115;46.038;14.612;2024-03-06T01:13:52;98251.88;;;9.23;100.00
21902;BME280;11115;46.038;14.612;2024-03-06T01:16:26;98256.78;;;9.40;100.00
21902;BME280;11115;46.038;14.612;2024-03-06T01:18:58;98259.84;;;9.25;100.00
21902;BME280;11115;46.038;14.612;2024-03-06T01:21:32;98260.38;;;9.27;100.00
21902;BME280;11115;46.038;14.612;2024-03-06T01:24:03;98252.59;;;9.29;100.00
21902;BME280;11115;46.038;14.612;2024-03-06T01:26:41;98251.03;;;9.23;100.00
21902;BME280;11115;46.038;14.612;2024-03-06T01:29:13;98257.69;;;9.22;100.00
21902;BME280;11115;46.038;14.612;2024-03-06T01:32:01;98249.09;;;9.23;100.00
21902;BME280;11115;46.038;14.612;2024-03-06T01:34:33;98246.56;;;9.27;100.00
21902;BME280;11115;46.038;14.612;2024-03-06T01:37:08;98244.94;;;9.26;100.00
21902;BME280;11115;46.038;14.612;2024-03-06T01:39:49;98247.78;;;9.21;100.00
21902;BME280;11115;46.038;14.612;2024-03-06T01:42:26;98246.25;;;9.28;100.00
21902;BME280;11115;46.038;14.612;2024-03-06T01:45:01;98248.53;;;9.26;100.00
21902;BME280;11115;46.038;14.612;2024-03-06T01:47:35;98252.91;;;9.27;100.00
21902;BME280;11115;46.038;14.612;2024-03-06T01:50:07;98237.47;;;9.26;100.00
21902;BME280;11115;46.038;14.612;2024-03-06T01:52:49;98244.94;;;9.26;100.00
21902;BME280;11115;46.038;14.612;2024-03-06T01:55:27;98245.44;;;9.28;100.00
21902;BME280;11115;46.038;14.612;2024-03-06T01:58:05;98249.84;;;9.29;100.00
21902;BME280;11115;46.038;14.612;2024-03-06T02:00:35;98239.94;;;9.28;100.00
21902;BME280;11115;46.038;14.612;2024-03-06T02:03:18;98245.44;;;9.28;100.00
21902;BME280;11115;46.038;14.612;2024-03-06T02:06:03;98243.19;;;9.30;100.00
21902;BME280;11115;46.038;14.612;2024-03-06T02:08:40;98239.19;;;9.22;100.00
21902;BME280;11115;46.038;14.612;2024-03-06T02:11:11;98238.47;;;9.17;100.00
21902;BME280;11115;46.038;14.612;2024-03-06T02:13:52;98236.72;;;9.21;100.00
21902;BME280;11115;46.038;14.612;2024-03-06T02:16:23;98240.00;;;9.23;100.00
21902;BME280;11115;46.038;14.612;2024-03-06T02:18:58;98235.91;;;9.20;100.00
21902;BME280;11115;46.038;14.612;2024-03-06T02:21:38;98237.69;;;9.30;100.00
21902;BME280;11115;46.038;14.612;2024-03-06T02:24:17;98238.06;;;9.23;100.00
21902;BME280;11115;46.038;14.612;2024-03-06T02:26:46;98232.16;;;9.30;100.00
21902;BME280;11115;46.038;14.612;2024-03-06T02:29:22;98225.81;;;9.29;100.00
21902;BME280;11115;46.038;14.612;2024-03-06T02:31:58;98173.28;;;8.93;100.00
21902;BME280;11115;46.038;14.612;2024-03-06T02:34:39;98227.63;;;9.20;100.00
21902;BME280;11115;46.038;14.612;2024-03-06T02:37:09;98219.16;;;9.17;100.00
21902;BME280;11115;46.038;14.612;2024-03-06T02:39:44;98214.47;;;9.17;100.00
21902;BME280;11115;46.038;14.612;2024-03-06T02:42:20;98220.41;;;9.10;100.00
21902;BME280;11115;46.038;14.612;2024-03-06T02:44:59;98216.63;;;9.06;100.00
21902;BME280;11115;46.038;14.612;2024-03-06T02:47:40;98212.50;;;9.04;100.00
21902;BME280;11115;46.038;14.612;2024-03-06T02:50:12;98210.03;;;9.02;100.00
21902;BME280;11115;46.038;14.612;2024-03-06T02:52:41;98206.66;;;9.05;100.00
21902;BME280;11115;46.038;14.612;2024-03-06T02:55:13;98201.97;;;9.06;100.00
21902;BME280;11115;46.038;14.612;2024-03-06T02:57:45;98204.22;;;8.90;100.00
21902;BME280;11115;46.038;14.612;2024-03-06T03:00:20;98209.22;;;8.88;100.00
21902;BME280;11115;46.038;14.612;2024-03-06T03:02:52;98201.75;;;8.75;100.00
21902;BME280;11115;46.038;14.612;2024-03-06T03:05:25;98199.59;;;8.72;100.00
21902;BME280;11115;46.038;14.612;2024-03-06T03:08:05;98204.91;;;8.82;100.00
21902;BME280;11115;46.038;14.612;2024-03-06T03:10:42;98205.94;;;8.86;100.00
21902;BME280;11115;46.038;14.612;2024-03-06T03:13:14;98209.75;;;8.90;100.00
21902;BME280;11115;46.038;14.612;2024-03-06T03:15:47;98200.66;;;9.03;100.00
21902;BME280;11115;46.038;14.612;2024-03-06T03:18:23;98170.19;;;8.81;100.00
21902;BME280;11115;46.038;14.612;2024-03-06T03:21:08;98207.72;;;9.09;100.00
21902;BME280;11115;46.038;14.612;2024-03-06T03:23:41;98209.03;;;8.98;100.00
21902;BME280;11115;46.038;14.612;2024-03-06T03:26:18;98150.13;;;8.62;100.00
21902;BME280;11115;46.038;14.612;2024-03-06T03:28:57;98200.97;;;8.88;100.00
21902;BME280;11115;46.038;14.612;2024-03-06T03:31:36;98193.78;;;8.73;100.00
21902;BME280;11115;46.038;14.612;2024-03-06T03:34:12;98193.66;;;8.65;100.00
21902;BME280;11115;46.038;14.612;2024-03-06T03:36:53;98195.69;;;8.59;100.00
21902;BME280;11115;46.038;14.612;2024-03-06T03:39:21;98186.69;;;8.54;100.00
21902;BME280;11115;46.038;14.612;2024-03-06T03:41:57;98204.69;;;8.65;100.00
21902;BME280;11115;46.038;14.612;2024-03-06T03:44:36;98207.44;;;8.65;100.00
21902;BME280;11115;46.038;14.612;2024-03-06T03:47:10;98207.03;;;8.58;100.00
21902;BME280;11115;46.038;14.612;2024-03-06T03:49:48;98199.34;;;8.55;100.00
21902;BME280;11115;46.038;14.612;2024-03-06T03:52:38;98206.91;;;8.63;100.00
21902;BME280;11115;46.038;14.612;2024-03-06T03:55:12;98209.38;;;8.64;100.00
21902;BME280;11115;46.038;14.612;2024-03-06T03:57:51;98209.16;;;8.61;100.00
21902;BME280;11115;46.038;14.612;2024-03-06T04:00:25;98209.25;;;8.56;100.00
21902;BME280;11115;46.038;14.612;2024-03-06T04:03:01;98206.53;;;8.69;100.00
21902;BME280;11115;46.038;14.612;2024-03-06T04:05:40;98205.72;;;8.69;100.00
21902;BME280;11115;46.038;14.612;2024-03-06T04:08:15;98210.13;;;8.70;100.00
21902;BME280;11115;46.038;14.612;2024-03-06T04:10:53;98208.03;;;8.62;100.00
21902;BME280;11115;46.038;14.612;2024-03-06T04:13:35;98208.25;;;8.51;100.00
21902;BME280;11115;46.038;14.612;2024-03-06T04:16:17;98204.88;;;8.55;100.00
21902;BME280;11115;46.038;14.612;2024-03-06T04:18:53;98209.88;;;8.52;100.00
21902;BME280;11115;46.038;14.612;2024-03-06T04:21:26;98215.50;;;8.61;100.00
21902;BME280;11115;46.038;14.612;2024-03-06T04:24:04;98211.63;;;8.62;100.00
21902;BME280;11115;46.038;14.612;2024-03-06T04:26:33;98215.19;;;8.63;100.00
21902;BME280;11115;46.038;14.612;2024-03-06T04:29:10;98211.25;;;8.69;100.00
21902;BME280;11115;46.038;14.612;2024-03-06T04:31:43;98215.84;;;8.73;100.00
21902;BME280;11115;46.038;14.612;2024-03-06T04:34:28;98221.72;;;8.67;100.00
21902;BME280;11115;46.038;14.612;2024-03-06T04:37:00;98221.94;;;8.57;100.00
21902;BME280;11115;46.038;14.612;2024-03-06T04:39:43;98218.66;;;8.55;100.00
21902;BME280;11115;46.038;14.612;2024-03-06T04:42:18;98220.03;;;8.38;100.00
21902;BME280;11115;46.038;14.612;2024-03-06T04:44:50;98217.47;;;8.42;100.00
21902;BME280;11115;46.038;14.612;2024-03-06T04:47:21;98217.69;;;8.45;100.00
21902;BME280;11115;46.038;14.612;2024-03-06T04:50:10;98217.03;;;8.54;100.00
21902;BME280;11115;46.038;14.612;2024-03-06T04:52:59;98211.94;;;8.61;100.00
21902;BME280;11115;46.038;14.612;2024-03-06T04:55:40;98222.53;;;8.54;100.00
21902;BME280;11115;46.038;14.612;2024-03-06T04:58:14;98222.44;;;8.59;100.00
21902;BME280;11115;46.038;14.612;2024-03-06T05:00:55;98224.25;;;8.49;100.00
21902;BME280;11115;46.038;14.612;2024-03-06T05:03:28;98230.59;;;8.50;100.00
21902;BME280;11115;46.038;14.612;2024-03-06T05:06:18;98223.06;;;8.56;100.00
21902;BME280;11115;46.038;14.612;2024-03-06T05:09:11;98234.91;;;8.56;100.00
21902;BME280;11115;46.038;14.612;2024-03-06T05:12:06;98224.78;;;8.51;100.00
21902;BME280;11115;46.038;14.612;2024-03-06T05:14:55;98216.88;;;8.45;100.00
21902;BME280;11115;46.038;14.612;2024-03-06T05:17:44;98214.56;;;8.52;100.00
21902;BME280;11115;46.038;14.612;2024-03-06T05:20:34;98232.66;;;8.58;100.00
21902;BME280;11115;46.038;14.612;2024-03-06T05:23:22;98236.94;;;8.50;100.00
21902;BME280;11115;46.038;14.612;2024-03-06T05:26:10;98239.06;;;8.54;100.00
21902;BME280;11115;46.038;14.612;2024-03-06T05:28:56;98243.41;;;8.41;100.00
21902;BME280;11115;46.038;14.612;2024-03-06T05:31:47;98239.03;;;8.40;100.00
21902;BME280;11115;46.038;14.612;2024-03-06T05:34:35;98244.84;;;8.38;100.00
21902;BME280;11115;46.038;14.612;2024-03-06T05:37:26;98241.25;;;8.38;100.00
21902;BME280;11115;46.038;14.612;2024-03-06T05:40:17;98239.94;;;8.35;100.00
21902;BME280;11115;46.038;14.612;2024-03-06T05:43:04;98247.28;;;8.40;100.00
21902;BME280;11115;46.038;14.612;2024-03-06T05:45:51;98251.59;;;8.46;100.00
21902;BME280;11115;46.038;14.612;2024-03-06T05:48:42;98253.03;;;8.43;100.00
21902;BME280;11115;46.038;14.612;2024-03-06T05:51:32;98256.53;;;8.49;100.00
21902;BME280;11115;46.038;14.612;2024-03-06T05:54:27;98253.78;;;8.49;100.00
21902;BME280;11115;46.038;14.612;2024-03-06T05:57:17;98255.94;;;8.52;100.00
21902;BME280;11115;46.038;14.612;2024-03-06T06:00:08;98256.75;;;8.52;100.00
21902;BME280;11115;46.038;14.612;2024-03-06T06:02:47;98260.31;;;8.53;100.00
21902;BME280;11115;46.038;14.612;2024-03-06T06:05:21;98263.28;;;8.57;100.00
21902;BME280;11115;46.038;14.612;2024-03-06T06:08:09;98265.22;;;8.56;100.00
21902;BME280;11115;46.038;14.612;2024-03-06T06:10:43;98260.22;;;8.58;100.00
21902;BME280;11115;46.038;14.612;2024-03-06T06:13:21;98267.56;;;8.49;100.00
21902;BME280;11115;46.038;14.612;2024-03-06T06:15:52;98266.34;;;8.55;100.00
21902;BME280;11115;46.038;14.612;2024-03-06T06:18:26;98262.97;;;8.58;100.00
21902;BME280;11115;46.038;14.612;2024-03-06T06:21:04;98267.38;;;8.59;100.00
21902;BME280;11115;46.038;14.612;2024-03-06T06:23:39;98275.56;;;8.64;100.00
21902;BME280;11115;46.038;14.612;2024-03-06T06:26:08;98266.41;;;8.69;100.00
21902;BME280;11115;46.038;14.612;2024-03-06T06:28:43;98274.94;;;8.67;100.00
21902;BME280;11115;46.038;14.612;2024-03-06T06:31:19;98280.47;;;8.67;100.00
21902;BME280;11115;46.038;14.612;2024-03-06T06:33:54;98275.25;;;8.66;100.00
21902;BME280;11115;46.038;14.612;2024-03-06T06:36:46;98279.06;;;8.70;100.00
21902;BME280;11115;46.038;14.612;2024-03-06T06:39:22;98271.72;;;8.79;100.00
21902;BME280;11115;46.038;14.612;2024-03-06T06:41:54;98282.09;;;8.87;100.00
21902;BME280;11115;46.038;14.612;2024-03-06T06:44:26;98272.69;;;8.88;100.00
21902;BME280;11115;46.038;14.612;2024-03-06T06:46:57;98281.16;;;8.92;100.00
21902;BME280;11115;46.038;14.612;2024-03-06T06:49:32;98270.19;;;8.87;100.00
21902;BME280;11115;46.038;14.612;2024-03-06T06:52:11;98288.94;;;9.03;100.00
21902;BME280;11115;46.038;14.612;2024-03-06T06:54:41;98268.50;;;8.91;100.00
21902;BME280;11115;46.038;14.612;2024-03-06T06:57:12;98285.16;;;8.99;100.00
21902;BME280;11115;46.038;14.612;2024-03-06T06:59:47;98278.97;;;9.07;100.00
21902;BME280;11115;46.038;14.612;2024-03-06T07:02:21;98279.06;;;9.16;100.00
21902;BME280;11115;46.038;14.612;2024-03-06T07:04:52;98287.66;;;9.15;100.00
21902;BME280;11115;46.038;14.612;2024-03-06T07:07:23;98278.13;;;9.21;100.00
21902;BME280;11115;46.038;14.612;2024-03-06T07:10:02;98287.75;;;9.09;100.00
21902;BME280;11115;46.038;14.612;2024-03-06T07:12:42;98291.72;;;9.17;100.00
21902;BME280;11115;46.038;14.612;2024-03-06T07:15:16;98292.97;;;9.25;100.00
21902;BME280;11115;46.038;14.612;2024-03-06T07:17:52;98295.81;;;9.20;100.00
21902;BME280;11115;46.038;14.612;2024-03-06T07:20:25;98303.94;;;9.30;100.00
21902;BME280;11115;46.038;14.612;2024-03-06T07:23:03;98298.00;;;9.36;100.00
21902;BME280;11115;46.038;14.612;2024-03-06T07:25:46;98299.81;;;9.41;100.00
21902;BME280;11115;46.038;14.612;2024-03-06T07:28:19;98307.09;;;9.51;100.00
21902;BME280;11115;46.038;14.612;2024-03-06T07:30:52;98289.09;;;9.39;100.00
21902;BME280;11115;46.038;14.612;2024-03-06T07:33:28;98305.78;;;9.48;100.00
21902;BME280;11115;46.038;14.612;2024-03-06T07:35:59;98308.53;;;9.48;100.00
21902;BME280;11115;46.038;14.612;2024-03-06T07:38:37;98310.19;;;9.49;100.00
21902;BME280;11115;46.038;14.612;2024-03-06T07:41:12;98310.28;;;9.58;100.00
21902;BME280;11115;46.038;14.612;2024-03-06T07:43:50;98313.97;;;9.67;100.00
21902;BME280;11115;46.038;14.612;2024-03-06T07:46:22;98310.28;;;9.71;100.00
21902;BME280;11115;46.038;14.612;2024-03-06T07:48:53;98306.28;;;9.64;100.00
21902;BME280;11115;46.038;14.612;2024-03-06T07:51:23;98317.31;;;9.78;100.00
21902;BME280;11115;46.038;14.612;2024-03-06T07:53:59;98322.34;;;9.76;100.00
21902;BME280;11115;46.038;14.612;2024-03-06T07:56:38;98315.81;;;9.85;100.00
21902;BME280;11115;46.038;14.612;2024-03-06T07:59:12;98322.66;;;9.88;100.00
21902;BME280;11115;46.038;14.612;2024-03-06T08:01:48;98323.06;;;9.95;100.00
21902;BME280;11115;46.038;14.612;2024-03-06T08:04:26;98316.09;;;9.97;100.00
21902;BME280;11115;46.038;14.612;2024-03-06T08:06:57;98304.31;;;9.92;100.00
21902;BME280;11115;46.038;14.612;2024-03-06T08:09:30;98318.03;;;9.97;100.00
21902;BME280;11115;46.038;14.612;2024-03-06T08:12:04;98324.69;;;9.96;100.00
21902;BME280;11115;46.038;14.612;2024-03-06T08:14:46;98323.66;;;9.92;100.00
21902;BME280;11115;46.038;14.612;2024-03-06T08:17:31;98317.75;;;9.85;100.00
21902;BME280;11115;46.038;14.612;2024-03-06T08:20:07;98322.16;;;9.86;100.00
21902;BME280;11115;46.038;14.612;2024-03-06T08:22:45;98317.91;;;10.02;100.00
21902;BME280;11115;46.038;14.612;2024-03-06T08:25:15;98321.72;;;10.06;100.00
21902;BME280;11115;46.038;14.612;2024-03-06T08:27:51;98322.91;;;10.14;100.00
21902;BME280;11115;46.038;14.612;2024-03-06T08:30:29;98328.75;;;10.12;100.00
21902;BME280;11115;46.038;14.612;2024-03-06T08:33:07;98317.53;;;10.22;100.00
21902;BME280;11115;46.038;14.612;2024-03-06T08:35:45;98323.13;;;10.17;100.00
21902;BME280;11115;46.038;14.612;2024-03-06T08:38:19;98327.84;;;10.30;100.00
21902;BME280;11115;46.038;14.612;2024-03-06T08:40:53;98327.53;;;10.32;100.00
21902;BME280;11115;46.038;14.612;2024-03-06T08:43:25;98335.88;;;10.41;100.00
21902;BME280;11115;46.038;14.612;2024-03-06T08:45:55;98331.38;;;10.45;100.00
21902;BME280;11115;46.038;14.612;2024-03-06T08:48:33;98331.72;;;10.43;100.00
21902;BME280;11115;46.038;14.612;2024-03-06T08:51:09;98330.16;;;10.37;100.00
21902;BME280;11115;46.038;14.612;2024-03-06T08:53:51;98335.06;;;10.40;100.00
21902;BME280;11115;46.038;14.612;2024-03-06T08:56:21;98345.44;;;10.34;100.00
21902;BME280;11115;46.038;14.612;2024-03-06T08:59:02;98332.88;;;10.28;100.00
21902;BME280;11115;46.038;14.612;2024-03-06T09:01:38;98321.94;;;10.23;100.00
21902;BME280;11115;46.038;14.612;2024-03-06T09:04:15;98347.69;;;10.32;100.00
21902;BME280;11115;46.038;14.612;2024-03-06T09:06:52;98341.22;;;10.37;100.00
21902;BME280;11115;46.038;14.612;2024-03-06T09:09:28;98349.31;;;10.33;100.00
21902;BME280;11115;46.038;14.612;2024-03-06T09:12:25;98354.84;;;10.33;100.00
21902;BME280;11115;46.038;14.612;2024-03-06T09:14:56;98358.38;;;10.25;100.00
21902;BME280;11115;46.038;14.612;2024-03-06T09:17:30;98363.13;;;10.20;100.00
21902;BME280;11115;46.038;14.612;2024-03-06T09:20:03;98367.66;;;10.16;100.00
21902;BME280;11115;46.038;14.612;2024-03-06T09:22:43;98365.44;;;10.04;100.00
21902;BME280;11115;46.038;14.612;2024-03-06T09:25:22;98363.78;;;10.03;100.00
21902;BME280;11115;46.038;14.612;2024-03-06T09:27:57;98361.00;;;10.17;100.00
21902;BME280;11115;46.038;14.612;2024-03-06T09:30:33;98370.41;;;10.16;100.00
21902;BME280;11115;46.038;14.612;2024-03-06T09:33:20;98370.34;;;10.07;100.00
21902;BME280;11115;46.038;14.612;2024-03-06T09:35:56;98364.69;;;9.98;100.00
21902;BME280;11115;46.038;14.612;2024-03-06T09:38:30;98351.63;;;9.90;100.00
21902;BME280;11115;46.038;14.612;2024-03-06T09:41:05;98364.63;;;10.03;100.00
21902;BME280;11115;46.038;14.612;2024-03-06T09:43:43;98373.28;;;9.97;100.00
21902;BME280;11115;46.038;14.612;2024-03-06T09:46:14;98362.13;;;10.02;100.00
21902;BME280;11115;46.038;14.612;2024-03-06T09:48:52;98364.38;;;10.00;100.00
21902;BME280;11115;46.038;14.612;2024-03-06T09:51:24;98353.88;;;9.88;100.00
21902;BME280;11115;46.038;14.612;2024-03-06T09:54:07;98349.78;;;9.86;100.00
21902;BME280;11115;46.038;14.612;2024-03-06T09:56:37;98374.53;;;9.91;100.00
21902;BME280;11115;46.038;14.612;2024-03-06T09:59:09;98375.78;;;9.85;100.00
21902;BME280;11115;46.038;14.612;2024-03-06T10:04:43;98375.22;;;9.83;100.00
21902;BME280;11115;46.038;14.612;2024-03-06T10:07:31;98376.66;;;9.80;100.00
21902;BME280;11115;46.038;14.612;2024-03-06T10:10:08;98379.75;;;9.79;100.00
21902;BME280;11115;46.038;14.612;2024-03-06T10:12:46;98378.63;;;9.80;100.00
21902;BME280;11115;46.038;14.612;2024-03-06T10:15:24;98380.69;;;9.88;100.00
21902;BME280;11115;46.038;14.612;2024-03-06T10:18:15;98372.78;;;9.81;100.00
21902;BME280;11115;46.038;14.612;2024-03-06T10:20:51;98383.31;;;9.79;100.00
21902;BME280;11115;46.038;14.612;2024-03-06T10:23:22;98378.31;;;9.81;100.00
21902;BME280;11115;46.038;14.612;2024-03-06T10:26:00;98376.16;;;9.78;100.00
21902;BME280;11115;46.038;14.612;2024-03-06T10:28:39;98381.56;;;9.83;100.00
21902;BME280;11115;46.038;14.612;2024-03-06T10:31:29;98385.19;;;9.84;100.00
21902;BME280;11115;46.038;14.612;2024-03-06T10:34:06;98389.56;;;9.71;100.00
21902;BME280;11115;46.038;14.612;2024-03-06T10:36:42;98386.91;;;9.66;100.00
21902;BME280;11115;46.038;14.612;2024-03-06T10:39:19;98385.56;;;9.77;100.00
21902;BME280;11115;46.038;14.612;2024-03-06T10:41:56;98386.69;;;9.76;100.00
21902;BME280;11115;46.038;14.612;2024-03-06T10:44:31;98372.78;;;9.67;100.00
21902;BME280;11115;46.038;14.612;2024-03-06T10:47:09;98389.06;;;9.69;100.00
21902;BME280;11115;46.038;14.612;2024-03-06T10:50:06;98378.09;;;9.78;100.00
21902;BME280;11115;46.038;14.612;2024-03-06T10:52:40;98373.50;;;9.73;100.00
21902;BME280;11115;46.038;14.612;2024-03-06T10:55:18;98375.75;;;9.71;100.00
21902;BME280;11115;46.038;14.612;2024-03-06T10:57:54;98382.19;;;9.80;100.00
21902;BME280;11115;46.038;14.612;2024-03-06T11:00:31;98365.09;;;9.78;100.00
21902;BME280;11115;46.038;14.612;2024-03-06T11:03:11;98381.69;;;9.78;100.00
21902;BME280;11115;46.038;14.612;2024-03-06T11:05:45;98371.97;;;9.81;100.00
21902;BME280;11115;46.038;14.612;2024-03-06T11:08:20;98379.88;;;9.87;100.00
21902;BME280;11115;46.038;14.612;2024-03-06T11:11:18;98365.13;;;9.64;100.00
21902;BME280;11115;46.038;14.612;2024-03-06T11:13:54;98362.94;;;9.61;100.00
21902;BME280;11115;46.038;14.612;2024-03-06T11:16:59;98370.34;;;9.66;100.00
21902;BME280;11115;46.038;14.612;2024-03-06T11:19:31;98373.91;;;9.66;100.00
21902;BME280;11115;46.038;14.612;2024-03-06T11:22:05;98375.13;;;9.74;100.00
21902;BME280;11115;46.038;14.612;2024-03-06T11:24:36;98370.44;;;9.74;100.00
21902;BME280;11115;46.038;14.612;2024-03-06T11:27:14;98372.06;;;9.76;100.00
21902;BME280;11115;46.038;14.612;2024-03-06T11:30:13;98373.63;;;9.68;100.00
21902;BME280;11115;46.038;14.612;2024-03-06T11:33:00;98373.06;;;9.52;100.00
21902;BME280;11115;46.038;14.612;2024-03-06T11:35:35;98372.06;;;9.48;100.00
21902;BME280;11115;46.038;14.612;2024-03-06T11:38:12;98359.06;;;9.49;100.00
21902;BME280;11115;46.038;14.612;2024-03-06T11:40:48;98365.00;;;9.56;100.00
21902;BME280;11115;46.038;14.612;2024-03-06T11:43:31;98361.63;;;9.45;100.00
21902;BME280;11115;46.038;14.612;2024-03-06T11:46:12;98351.88;;;9.34;100.00
21902;BME280;11115;46.038;14.612;2024-03-06T11:48:56;98362.81;;;9.39;100.00
21902;BME280;11115;46.038;14.612;2024-03-06T11:51:32;98358.25;;;9.48;100.00
21902;BME280;11115;46.038;14.612;2024-03-06T11:54:09;98354.84;;;9.37;100.00
21902;BME280;11115;46.038;14.612;2024-03-06T11:56:44;98355.56;;;9.43;100.00
21902;BME280;11115;46.038;14.612;2024-03-06T11:59:44;98352.41;;;9.50;100.00
21902;BME280;11115;46.038;14.612;2024-03-06T12:02:27;98355.47;;;9.62;100.00
21902;BME280;11115;46.038;14.612;2024-03-06T12:05:04;98326.25;;;9.47;100.00
21902;BME280;11115;46.038;14.612;2024-03-06T12:07:50;98355.91;;;9.55;100.00
21902;BME280;11115;46.038;14.612;2024-03-06T12:10:26;98354.44;;;9.44;100.00
21902;BME280;11115;46.038;14.612;2024-03-06T12:13:04;98347.06;;;9.39;100.00
21902;BME280;11115;46.038;14.612;2024-03-06T12:15:35;98347.19;;;9.48;100.00
21902;BME280;11115;46.038;14.612;2024-03-06T12:18:16;98340.53;;;9.35;100.00
21902;BME280;11115;46.038;14.612;2024-03-06T12:20:53;98341.44;;;9.31;100.00
21902;BME280;11115;46.038;14.612;2024-03-06T12:23:25;98323.66;;;9.37;100.00
21902;BME280;11115;46.038;14.612;2024-03-06T12:26:09;98357.13;;;9.49;100.00
21902;BME280;11115;46.038;14.612;2024-03-06T12:28:42;98347.88;;;9.40;100.00
21902;BME280;11115;46.038;14.612;2024-03-06T12:31:15;98336.66;;;9.50;100.00
21902;BME280;11115;46.038;14.612;2024-03-06T12:33:57;98335.03;;;9.49;100.00
21902;BME280;11115;46.038;14.612;2024-03-06T12:36:36;98340.63;;;9.44;100.00
21902;BME280;11115;46.038;14.612;2024-03-06T12:39:19;98346.69;;;9.46;100.00
21902;BME280;11115;46.038;14.612;2024-03-06T12:42:02;98338.78;;;9.39;100.00
21902;BME280;11115;46.038;14.612;2024-03-06T12:44:34;98341.56;;;9.39;100.00
21902;BME280;11115;46.038;14.612;2024-03-06T12:47:10;98336.78;;;9.45;100.00
21902;BME280;11115;46.038;14.612;2024-03-06T12:49:44;98341.84;;;9.38;100.00
21902;BME280;11115;46.038;14.612;2024-03-06T12:52:19;98324.97;;;9.39;100.00
21902;BME280;11115;46.038;14.612;2024-03-06T12:54:52;98333.78;;;9.28;100.00
21902;BME280;11115;46.038;14.612;2024-03-06T12:57:26;98326.41;;;9.37;100.00
21902;BME280;11115;46.038;14.612;2024-03-06T13:00:02;98324.88;;;9.31;100.00
21902;BME280;11115;46.038;14.612;2024-03-06T13:02:35;98326.22;;;9.33;100.00
21902;BME280;11115;46.038;14.612;2024-03-06T13:05:04;98324.00;;;9.49;100.00
21902;BME280;11115;46.038;14.612;2024-03-06T13:07:42;98316.00;;;9.48;100.00
21902;BME280;11115;46.038;14.612;2024-03-06T13:10:17;98319.66;;;9.43;100.00
21902;BME280;11115;46.038;14.612;2024-03-06T13:12:54;98309.16;;;9.45;100.00
21902;BME280;11115;46.038;14.612;2024-03-06T13:15:34;98324.09;;;9.58;100.00
21902;BME280;11115;46.038;14.612;2024-03-06T13:18:18;98314.97;;;9.57;100.00
21902;BME280;11115;46.038;14.612;2024-03-06T13:20:53;98308.25;;;9.50;100.00
21902;BME280;11115;46.038;14.612;2024-03-06T13:23:47;98318.25;;;9.46;100.00
21902;BME280;11115;46.038;14.612;2024-03-06T13:26:16;98310.88;;;9.55;100.00
21902;BME280;11115;46.038;14.612;2024-03-06T13:28:46;98311.91;;;9.59;100.00
21902;BME280;11115;46.038;14.612;2024-03-06T13:31:19;98312.72;;;9.59;100.00
21902;BME280;11115;46.038;14.612;2024-03-06T13:34:01;98282.94;;;9.15;100.00
21902;BME280;11115;46.038;14.612;2024-03-06T13:36:34;98301.97;;;9.30;100.00
21902;BME280;11115;46.038;14.612;2024-03-06T13:39:09;98310.06;;;9.40;100.00
21902;BME280;11115;46.038;14.612;2024-03-06T13:41:52;98306.69;;;9.57;100.00
21902;BME280;11115;46.038;14.612;2024-03-06T13:44:25;98308.44;;;9.53;100.00